Airport ID:KO69
Update Time (UTC):06/08/2020 16:58
Wind Speed (Knots):2
Wind Direction (Magnetic):40
Temperature (°C):19
Dew Point (°C):15
Humidity (%):75
Altimeter (inHg):29.93
Density Altitude (Feet):
Visibility:10+
Clouds (Hundreds of feet):CLR
Present Weather:
METAR:METAR KO69 061655Z AUTO 00000KT 10SM CLR 19/15 A2993 RMK A01

The data displayed is for advisory purposes only and is not to be used for flight planning or operations.